sensor_id;sensor_type;location;lat;lon;timestamp;P1;durP1;ratioP1;P2;durP2;ratioP2
47433;SDS011;33184;48.774;8.918;2023-05-07T00:00:48;1.27;;;1.08;;
47433;SDS011;33184;48.774;8.918;2023-05-07T00:06:09;1.42;;;1.10;;
47433;SDS011;33184;48.774;8.918;2023-05-07T00:11:33;6.10;;;3.65;;
47433;SDS011;33184;48.774;8.918;2023-05-07T00:16:53;7.55;;;2.75;;
47433;SDS011;33184;48.774;8.918;2023-05-07T00:22:15;3.65;;;1.52;;
47433;SDS011;33184;48.774;8.918;2023-05-07T00:27:36;2.20;;;1.10;;
47433;SDS011;33184;48.774;8.918;2023-05-07T00:32:57;2.53;;;1.90;;
47433;SDS011;33184;48.774;8.918;2023-05-07T00:38:17;2.47;;;1.52;;
47433;SDS011;33184;48.774;8.918;2023-05-07T00:43:39;2.00;;;1.52;;
47433;SDS011;33184;48.774;8.918;2023-05-07T00:49:00;4.18;;;1.80;;
47433;SDS011;33184;48.774;8.918;2023-05-07T00:54:21;4.50;;;1.88;;
47433;SDS011;33184;48.774;8.918;2023-05-07T00:59:44;3.88;;;2.00;;
47433;SDS011;33184;48.774;8.918;2023-05-07T01:05:05;4.03;;;1.60;;
47433;SDS011;33184;48.774;8.918;2023-05-07T01:10:27;2.00;;;1.80;;
47433;SDS011;33184;48.774;8.918;2023-05-07T01:15:50;2.83;;;1.92;;
47433;SDS011;33184;48.774;8.918;2023-05-07T01:21:11;2.40;;;2.00;;
47433;SDS011;33184;48.774;8.918;2023-05-07T01:26:32;2.35;;;1.73;;
47433;SDS011;33184;48.774;8.918;2023-05-07T01:31:53;3.00;;;1.88;;
47433;SDS011;33184;48.774;8.918;2023-05-07T01:37:16;2.40;;;2.00;;
47433;SDS011;33184;48.774;8.918;2023-05-07T01:42:37;3.88;;;1.98;;
47433;SDS011;33184;48.774;8.918;2023-05-07T01:47:58;3.47;;;2.22;;
47433;SDS011;33184;48.774;8.918;2023-05-07T01:53:19;2.65;;;1.73;;
47433;SDS011;33184;48.774;8.918;2023-05-07T01:58:39;2.20;;;1.67;;
47433;SDS011;33184;48.774;8.918;2023-05-07T02:04:01;3.55;;;2.13;;
47433;SDS011;33184;48.774;8.918;2023-05-07T02:09:23;2.58;;;1.70;;
47433;SDS011;33184;48.774;8.918;2023-05-07T02:14:45;2.20;;;2.00;;
47433;SDS011;33184;48.774;8.918;2023-05-07T02:20:06;2.15;;;1.70;;
47433;SDS011;33184;48.774;8.918;2023-05-07T02:25:33;1.80;;;1.60;;
47433;SDS011;33184;48.774;8.918;2023-05-07T02:30:54;2.15;;;1.55;;
47433;SDS011;33184;48.774;8.918;2023-05-07T02:36:15;1.50;;;1.40;;
47433;SDS011;33184;48.774;8.918;2023-05-07T02:41:43;1.63;;;1.52;;
47433;SDS011;33184;48.774;8.918;2023-05-07T02:47:04;3.15;;;1.70;;
47433;SDS011;33184;48.774;8.918;2023-05-07T02:52:25;25.40;;;8.45;;
47433;SDS011;33184;48.774;8.918;2023-05-07T02:57:46;3.97;;;2.70;;
47433;SDS011;33184;48.774;8.918;2023-05-07T03:03:07;1.83;;;1.63;;
47433;SDS011;33184;48.774;8.918;2023-05-07T03:08:27;1.45;;;1.35;;
47433;SDS011;33184;48.774;8.918;2023-05-07T03:13:49;4.85;;;1.90;;
47433;SDS011;33184;48.774;8.918;2023-05-07T03:19:11;1.50;;;1.38;;
47433;SDS011;33184;48.774;8.918;2023-05-07T03:24:32;1.83;;;1.50;;
47433;SDS011;33184;48.774;8.918;2023-05-07T03:29:52;1.45;;;1.20;;
47433;SDS011;33184;48.774;8.918;2023-05-07T03:35:15;2.80;;;1.60;;
47433;SDS011;33184;48.774;8.918;2023-05-07T03:40:36;5.63;;;2.65;;
47433;SDS011;33184;48.774;8.918;2023-05-07T03:45:58;6.57;;;2.53;;
47433;SDS011;33184;48.774;8.918;2023-05-07T03:51:21;3.42;;;2.58;;
47433;SDS011;33184;48.774;8.918;2023-05-07T03:56:41;2.50;;;2.00;;
47433;SDS011;33184;48.774;8.918;2023-05-07T04:02:02;3.78;;;2.13;;
47433;SDS011;33184;48.774;8.918;2023-05-07T04:07:25;2.10;;;1.67;;
47433;SDS011;33184;48.774;8.918;2023-05-07T04:12:45;3.92;;;1.63;;
47433;SDS011;33184;48.774;8.918;2023-05-07T04:18:10;3.65;;;1.90;;
47433;SDS011;33184;48.774;8.918;2023-05-07T04:23:32;2.85;;;2.00;;
47433;SDS011;33184;48.774;8.918;2023-05-07T04:28:56;2.63;;;1.90;;
47433;SDS011;33184;48.774;8.918;2023-05-07T04:34:23;3.13;;;2.53;;
47433;SDS011;33184;48.774;8.918;2023-05-07T04:39:45;1.75;;;1.65;;
47433;SDS011;33184;48.774;8.918;2023-05-07T04:45:06;3.38;;;2.15;;
47433;SDS011;33184;48.774;8.918;2023-05-07T04:50:29;3.13;;;2.00;;
47433;SDS011;33184;48.774;8.918;2023-05-07T04:55:54;3.17;;;1.83;;
47433;SDS011;33184;48.774;8.918;2023-05-07T05:01:17;3.28;;;2.15;;
47433;SDS011;33184;48.774;8.918;2023-05-07T05:06:38;3.80;;;1.83;;
47433;SDS011;33184;48.774;8.918;2023-05-07T05:12:00;2.33;;;2.13;;
47433;SDS011;33184;48.774;8.918;2023-05-07T05:17:21;3.50;;;2.20;;
47433;SDS011;33184;48.774;8.918;2023-05-07T05:22:42;5.28;;;2.30;;
47433;SDS011;33184;48.774;8.918;2023-05-07T05:28:03;2.60;;;2.13;;
47433;SDS011;33184;48.774;8.918;2023-05-07T05:33:27;3.58;;;3.22;;
47433;SDS011;33184;48.774;8.918;2023-05-07T05:38:55;5.00;;;2.92;;
47433;SDS011;33184;48.774;8.918;2023-05-07T05:44:16;3.50;;;2.40;;
47433;SDS011;33184;48.774;8.918;2023-05-07T05:49:37;4.97;;;3.30;;
47433;SDS011;33184;48.774;8.918;2023-05-07T05:55:00;5.80;;;3.22;;
47433;SDS011;33184;48.774;8.918;2023-05-07T06:00:22;6.72;;;3.63;;
47433;SDS011;33184;48.774;8.918;2023-05-07T06:05:50;3.38;;;3.05;;
47433;SDS011;33184;48.774;8.918;2023-05-07T06:11:13;3.92;;;3.47;;
47433;SDS011;33184;48.774;8.918;2023-05-07T06:16:36;4.05;;;2.92;;
47433;SDS011;33184;48.774;8.918;2023-05-07T06:21:59;5.72;;;2.80;;
47433;SDS011;33184;48.774;8.918;2023-05-07T06:27:23;4.20;;;3.43;;
47433;SDS011;33184;48.774;8.918;2023-05-07T06:32:44;3.97;;;3.45;;
47433;SDS011;33184;48.774;8.918;2023-05-07T06:38:06;4.03;;;3.40;;
47433;SDS011;33184;48.774;8.918;2023-05-07T06:43:26;4.22;;;3.28;;
47433;SDS011;33184;48.774;8.918;2023-05-07T06:49:07;4.38;;;3.70;;
47433;SDS011;33184;48.774;8.918;2023-05-07T06:54:28;3.45;;;3.15;;
47433;SDS011;33184;48.774;8.918;2023-05-07T06:59:49;3.63;;;2.38;;
47433;SDS011;33184;48.774;8.918;2023-05-07T07:05:10;4.10;;;2.83;;
47433;SDS011;33184;48.774;8.918;2023-05-07T07:10:32;3.35;;;2.80;;
47433;SDS011;33184;48.774;8.918;2023-05-07T07:15:53;4.32;;;2.95;;
47433;SDS011;33184;48.774;8.918;2023-05-07T07:21:14;3.03;;;2.72;;
47433;SDS011;33184;48.774;8.918;2023-05-07T07:26:35;2.90;;;2.20;;
47433;SDS011;33184;48.774;8.918;2023-05-07T07:31:56;4.78;;;2.30;;
47433;SDS011;33184;48.774;8.918;2023-05-07T07:37:17;2.60;;;2.40;;
47433;SDS011;33184;48.774;8.918;2023-05-07T07:42:38;2.97;;;2.08;;
47433;SDS011;33184;48.774;8.918;2023-05-07T07:47:59;2.63;;;2.28;;
47433;SDS011;33184;48.774;8.918;2023-05-07T07:53:20;2.75;;;1.25;;
47433;SDS011;33184;48.774;8.918;2023-05-07T07:58:41;3.22;;;2.35;;
47433;SDS011;33184;48.774;8.918;2023-05-07T08:04:02;2.70;;;2.25;;
47433;SDS011;33184;48.774;8.918;2023-05-07T08:09:25;4.38;;;1.80;;
47433;SDS011;33184;48.774;8.918;2023-05-07T08:14:47;2.40;;;1.70;;
47433;SDS011;33184;48.774;8.918;2023-05-07T08:20:09;3.15;;;1.83;;
47433;SDS011;33184;48.774;8.918;2023-05-07T08:25:30;1.95;;;1.42;;
47433;SDS011;33184;48.774;8.918;2023-05-07T08:30:50;1.88;;;1.35;;
47433;SDS011;33184;48.774;8.918;2023-05-07T08:36:13;2.08;;;1.10;;
47433;SDS011;33184;48.774;8.918;2023-05-07T08:41:34;1.40;;;0.90;;
47433;SDS011;33184;48.774;8.918;2023-05-07T08:46:56;3.60;;;1.20;;
47433;SDS011;33184;48.774;8.918;2023-05-07T08:52:18;1.92;;;0.85;;
47433;SDS011;33184;48.774;8.918;2023-05-07T08:57:40;2.80;;;1.10;;
47433;SDS011;33184;48.774;8.918;2023-05-07T09:03:02;11.50;;;3.22;;
47433;SDS011;33184;48.774;8.918;2023-05-07T09:08:26;2.63;;;1.00;;
47433;SDS011;33184;48.774;8.918;2023-05-07T09:13:56;1.63;;;0.90;;
47433;SDS011;33184;48.774;8.918;2023-05-07T09:19:26;2.05;;;0.90;;
47433;SDS011;33184;48.774;8.918;2023-05-07T09:24:49;1.20;;;1.10;;
47433;SDS011;33184;48.774;8.918;2023-05-07T09:30:13;1.60;;;0.75;;
47433;SDS011;33184;48.774;8.918;2023-05-07T09:35:34;2.15;;;0.85;;
47433;SDS011;33184;48.774;8.918;2023-05-07T09:41:01;3.88;;;1.13;;
47433;SDS011;33184;48.774;8.918;2023-05-07T09:46:30;2.53;;;1.10;;
47433;SDS011;33184;48.774;8.918;2023-05-07T09:51:54;1.85;;;1.10;;
47433;SDS011;33184;48.774;8.918;2023-05-07T09:57:18;2.85;;;0.90;;
47433;SDS011;33184;48.774;8.918;2023-05-07T10:02:44;3.08;;;1.10;;
47433;SDS011;33184;48.774;8.918;2023-05-07T10:13:32;1.33;;;0.90;;
47433;SDS011;33184;48.774;8.918;2023-05-07T10:18:57;3.30;;;1.00;;
47433;SDS011;33184;48.774;8.918;2023-05-07T10:24:20;1.30;;;0.80;;
47433;SDS011;33184;48.774;8.918;2023-05-07T10:29:49;1.30;;;1.00;;
47433;SDS011;33184;48.774;8.918;2023-05-07T10:35:40;1.40;;;0.80;;
47433;SDS011;33184;48.774;8.918;2023-05-07T10:41:03;3.83;;;1.25;;
47433;SDS011;33184;48.774;8.918;2023-05-07T10:52:10;3.95;;;1.63;;
47433;SDS011;33184;48.774;8.918;2023-05-07T10:57:41;1.10;;;0.80;;
47433;SDS011;33184;48.774;8.918;2023-05-07T11:03:09;1.10;;;1.00;;
47433;SDS011;33184;48.774;8.918;2023-05-07T11:08:52;2.28;;;1.25;;
47433;SDS011;33184;48.774;8.918;2023-05-07T11:14:42;1.83;;;1.10;;
47433;SDS011;33184;48.774;8.918;2023-05-07T11:20:05;1.67;;;1.55;;
47433;SDS011;33184;48.774;8.918;2023-05-07T11:25:40;2.40;;;1.50;;
47433;SDS011;33184;48.774;8.918;2023-05-07T11:31:07;4.47;;;1.30;;
47433;SDS011;33184;48.774;8.918;2023-05-07T11:36:31;10.25;;;3.28;;
47433;SDS011;33184;48.774;8.918;2023-05-07T11:41:54;1.63;;;1.35;;
47433;SDS011;33184;48.774;8.918;2023-05-07T11:47:18;3.08;;;1.58;;
47433;SDS011;33184;48.774;8.918;2023-05-07T11:52:39;4.22;;;1.55;;
47433;SDS011;33184;48.774;8.918;2023-05-07T11:58:00;2.47;;;1.55;;
47433;SDS011;33184;48.774;8.918;2023-05-07T12:03:20;1.38;;;1.27;;
47433;SDS011;33184;48.774;8.918;2023-05-07T12:08:41;1.80;;;1.40;;
47433;SDS011;33184;48.774;8.918;2023-05-07T12:14:03;0.82;;;0.68;;
47433;SDS011;33184;48.774;8.918;2023-05-07T12:19:23;3.13;;;0.77;;
47433;SDS011;33184;48.774;8.918;2023-05-07T12:30:10;2.53;;;0.95;;
47433;SDS011;33184;48.774;8.918;2023-05-07T12:35:32;1.88;;;0.93;;
47433;SDS011;33184;48.774;8.918;2023-05-07T12:40:59;1.35;;;0.80;;
47433;SDS011;33184;48.774;8.918;2023-05-07T12:46:20;3.33;;;1.60;;
47433;SDS011;33184;48.774;8.918;2023-05-07T12:51:41;1.80;;;1.00;;
47433;SDS011;33184;48.774;8.918;2023-05-07T12:57:05;1.92;;;0.70;;
47433;SDS011;33184;48.774;8.918;2023-05-07T13:02:33;2.65;;;1.00;;
47433;SDS011;33184;48.774;8.918;2023-05-07T13:07:56;4.20;;;1.77;;
47433;SDS011;33184;48.774;8.918;2023-05-07T13:13:16;2.58;;;0.85;;
47433;SDS011;33184;48.774;8.918;2023-05-07T13:18:38;1.30;;;0.80;;
47433;SDS011;33184;48.774;8.918;2023-05-07T13:23:59;2.20;;;0.73;;
47433;SDS011;33184;48.774;8.918;2023-05-07T13:29:20;2.17;;;1.10;;
47433;SDS011;33184;48.774;8.918;2023-05-07T13:34:45;5.18;;;1.00;;
47433;SDS011;33184;48.774;8.918;2023-05-07T13:40:06;4.95;;;1.55;;
47433;SDS011;33184;48.774;8.918;2023-05-07T13:45:27;0.90;;;0.80;;
47433;SDS011;33184;48.774;8.918;2023-05-07T13:50:51;1.30;;;1.17;;
47433;SDS011;33184;48.774;8.918;2023-05-07T13:56:11;1.17;;;0.88;;
47433;SDS011;33184;48.774;8.918;2023-05-07T14:01:32;2.35;;;0.63;;
47433;SDS011;33184;48.774;8.918;2023-05-07T14:06:52;1.95;;;0.88;;
47433;SDS011;33184;48.774;8.918;2023-05-07T14:12:13;2.08;;;1.20;;
47433;SDS011;33184;48.774;8.918;2023-05-07T14:17:33;1.75;;;0.85;;
47433;SDS011;33184;48.774;8.918;2023-05-07T14:22:54;2.75;;;1.10;;
47433;SDS011;33184;48.774;8.918;2023-05-07T14:28:14;4.97;;;1.10;;
47433;SDS011;33184;48.774;8.918;2023-05-07T14:33:35;2.72;;;1.40;;
47433;SDS011;33184;48.774;8.918;2023-05-07T14:38:55;4.75;;;1.50;;
47433;SDS011;33184;48.774;8.918;2023-05-07T14:44:19;6.07;;;1.38;;
47433;SDS011;33184;48.774;8.918;2023-05-07T14:49:39;3.20;;;1.45;;
47433;SDS011;33184;48.774;8.918;2023-05-07T14:55:00;7.25;;;1.83;;
47433;SDS011;33184;48.774;8.918;2023-05-07T15:00:21;3.00;;;1.00;;
47433;SDS011;33184;48.774;8.918;2023-05-07T15:05:41;1.92;;;1.00;;
47433;SDS011;33184;48.774;8.918;2023-05-07T15:11:02;6.13;;;1.50;;
47433;SDS011;33184;48.774;8.918;2023-05-07T15:16:22;1.75;;;1.30;;
47433;SDS011;33184;48.774;8.918;2023-05-07T15:21:43;4.53;;;1.90;;
47433;SDS011;33184;48.774;8.918;2023-05-07T15:27:04;1.80;;;1.55;;
47433;SDS011;33184;48.774;8.918;2023-05-07T15:32:24;2.72;;;1.50;;
47433;SDS011;33184;48.774;8.918;2023-05-07T15:37:45;8.43;;;2.25;;
47433;SDS011;33184;48.774;8.918;2023-05-07T15:43:05;13.07;;;6.25;;
47433;SDS011;33184;48.774;8.918;2023-05-07T15:48:26;2.67;;;1.40;;
47433;SDS011;33184;48.774;8.918;2023-05-07T15:53:47;1.88;;;1.35;;
47433;SDS011;33184;48.774;8.918;2023-05-07T15:59:08;2.47;;;1.20;;
47433;SDS011;33184;48.774;8.918;2023-05-07T16:04:29;3.58;;;1.13;;
47433;SDS011;33184;48.774;8.918;2023-05-07T16:09:50;2.40;;;1.23;;
47433;SDS011;33184;48.774;8.918;2023-05-07T16:15:10;3.13;;;1.00;;
47433;SDS011;33184;48.774;8.918;2023-05-07T16:20:31;2.20;;;1.10;;
47433;SDS011;33184;48.774;8.918;2023-05-07T16:25:51;3.58;;;1.60;;
47433;SDS011;33184;48.774;8.918;2023-05-07T16:31:12;2.63;;;1.17;;
47433;SDS011;33184;48.774;8.918;2023-05-07T16:36:32;2.00;;;1.15;;
47433;SDS011;33184;48.774;8.918;2023-05-07T16:41:53;1.83;;;1.10;;
47433;SDS011;33184;48.774;8.918;2023-05-07T16:47:13;2.03;;;1.17;;
47433;SDS011;33184;48.774;8.918;2023-05-07T16:52:34;3.45;;;0.90;;
47433;SDS011;33184;48.774;8.918;2023-05-07T16:57:55;1.40;;;0.75;;
47433;SDS011;33184;48.774;8.918;2023-05-07T17:03:15;3.28;;;1.20;;
47433;SDS011;33184;48.774;8.918;2023-05-07T17:08:36;3.08;;;0.90;;
47433;SDS011;33184;48.774;8.918;2023-05-07T17:13:56;2.58;;;1.15;;
47433;SDS011;33184;48.774;8.918;2023-05-07T17:19:17;1.98;;;1.00;;
47433;SDS011;33184;48.774;8.918;2023-05-07T17:24:38;1.63;;;1.30;;
47433;SDS011;33184;48.774;8.918;2023-05-07T17:29:58;1.70;;;1.20;;
47433;SDS011;33184;48.774;8.918;2023-05-07T17:35:19;2.28;;;1.70;;
47433;SDS011;33184;48.774;8.918;2023-05-07T17:40:40;5.43;;;2.22;;
47433;SDS011;33184;48.774;8.918;2023-05-07T17:46:00;3.50;;;2.35;;
47433;SDS011;33184;48.774;8.918;2023-05-07T17:51:22;2.47;;;2.20;;
47433;SDS011;33184;48.774;8.918;2023-05-07T17:56:42;5.82;;;2.03;;
47433;SDS011;33184;48.774;8.918;2023-05-07T18:02:03;2.47;;;1.50;;
47433;SDS011;33184;48.774;8.918;2023-05-07T18:07:24;2.63;;;1.75;;
47433;SDS011;33184;48.774;8.918;2023-05-07T18:12:44;3.17;;;2.00;;
47433;SDS011;33184;48.774;8.918;2023-05-07T18:18:05;2.70;;;2.08;;
47433;SDS011;33184;48.774;8.918;2023-05-07T18:23:25;2.22;;;1.70;;
47433;SDS011;33184;48.774;8.918;2023-05-07T18:28:46;3.03;;;2.00;;
47433;SDS011;33184;48.774;8.918;2023-05-07T18:34:07;2.08;;;1.80;;
47433;SDS011;33184;48.774;8.918;2023-05-07T18:39:30;2.72;;;1.50;;
47433;SDS011;33184;48.774;8.918;2023-05-07T18:44:50;4.30;;;1.60;;
47433;SDS011;33184;48.774;8.918;2023-05-07T18:50:11;2.72;;;1.30;;
47433;SDS011;33184;48.774;8.918;2023-05-07T18:55:32;3.53;;;1.83;;
47433;SDS011;33184;48.774;8.918;2023-05-07T19:00:53;3.60;;;1.38;;
47433;SDS011;33184;48.774;8.918;2023-05-07T19:06:14;2.05;;;1.80;;
47433;SDS011;33184;48.774;8.918;2023-05-07T19:11:34;3.03;;;1.60;;
47433;SDS011;33184;48.774;8.918;2023-05-07T19:16:55;3.67;;;1.42;;
47433;SDS011;33184;48.774;8.918;2023-05-07T19:22:16;2.35;;;1.10;;
47433;SDS011;33184;48.774;8.918;2023-05-07T19:27:36;1.33;;;1.13;;
47433;SDS011;33184;48.774;8.918;2023-05-07T19:33:00;3.67;;;2.35;;
47433;SDS011;33184;48.774;8.918;2023-05-07T19:38:21;4.57;;;2.27;;
47433;SDS011;33184;48.774;8.918;2023-05-07T19:43:41;3.85;;;1.98;;
47433;SDS011;33184;48.774;8.918;2023-05-07T19:49:02;2.95;;;1.83;;
47433;SDS011;33184;48.774;8.918;2023-05-07T19:54:22;2.67;;;2.08;;
47433;SDS011;33184;48.774;8.918;2023-05-07T19:59:45;3.72;;;2.47;;
47433;SDS011;33184;48.774;8.918;2023-05-07T20:05:06;3.25;;;2.53;;
47433;SDS011;33184;48.774;8.918;2023-05-07T20:10:27;3.30;;;2.92;;
47433;SDS011;33184;48.774;8.918;2023-05-07T20:15:47;4.90;;;4.10;;
47433;SDS011;33184;48.774;8.918;2023-05-07T20:21:08;4.05;;;3.40;;
47433;SDS011;33184;48.774;8.918;2023-05-07T20:26:28;6.47;;;5.05;;
47433;SDS011;33184;48.774;8.918;2023-05-07T20:31:49;6.95;;;4.78;;
47433;SDS011;33184;48.774;8.918;2023-05-07T20:37:12;4.85;;;4.45;;
47433;SDS011;33184;48.774;8.918;2023-05-07T20:42:34;7.30;;;5.90;;
47433;SDS011;33184;48.774;8.918;2023-05-07T20:47:55;5.30;;;4.72;;
47433;SDS011;33184;48.774;8.918;2023-05-07T20:53:15;6.25;;;5.20;;
47433;SDS011;33184;48.774;8.918;2023-05-07T20:58:36;6.00;;;5.15;;
47433;SDS011;33184;48.774;8.918;2023-05-07T21:03:57;7.75;;;6.28;;
47433;SDS011;33184;48.774;8.918;2023-05-07T21:09:17;6.18;;;5.63;;
47433;SDS011;33184;48.774;8.918;2023-05-07T21:14:39;6.00;;;5.40;;
47433;SDS011;33184;48.774;8.918;2023-05-07T21:19:59;9.07;;;6.03;;
47433;SDS011;33184;48.774;8.918;2023-05-07T21:25:22;7.10;;;6.40;;
47433;SDS011;33184;48.774;8.918;2023-05-07T21:30:43;6.88;;;6.18;;
47433;SDS011;33184;48.774;8.918;2023-05-07T21:36:03;8.40;;;7.65;;
47433;SDS011;33184;48.774;8.918;2023-05-07T21:41:28;8.15;;;7.35;;
47433;SDS011;33184;48.774;8.918;2023-05-07T21:46:48;8.25;;;7.13;;
47433;SDS011;33184;48.774;8.918;2023-05-07T21:52:12;9.63;;;7.20;;
47433;SDS011;33184;48.774;8.918;2023-05-07T21:57:35;10.20;;;7.85;;
47433;SDS011;33184;48.774;8.918;2023-05-07T22:02:56;7.07;;;6.32;;
47433;SDS011;33184;48.774;8.918;2023-05-07T22:08:17;8.52;;;7.07;;
47433;SDS011;33184;48.774;8.918;2023-05-07T22:13:37;8.20;;;7.40;;
47433;SDS011;33184;48.774;8.918;2023-05-07T22:18:58;10.00;;;8.48;;
47433;SDS011;33184;48.774;8.918;2023-05-07T22:24:18;11.73;;;8.93;;
47433;SDS011;33184;48.774;8.918;2023-05-07T22:29:39;9.38;;;8.32;;
47433;SDS011;33184;48.774;8.918;2023-05-07T22:35:00;10.02;;;8.75;;
47433;SDS011;33184;48.774;8.918;2023-05-07T22:40:20;10.27;;;8.45;;
47433;SDS011;33184;48.774;8.918;2023-05-07T22:45:41;9.43;;;8.20;;
47433;SDS011;33184;48.774;8.918;2023-05-07T22:51:01;9.70;;;8.82;;
47433;SDS011;33184;48.774;8.918;2023-05-07T22:56:22;11.45;;;9.65;;
47433;SDS011;33184;48.774;8.918;2023-05-07T23:01:43;11.77;;;9.05;;
47433;SDS011;33184;48.774;8.918;2023-05-07T23:07:04;11.73;;;8.77;;
47433;SDS011;33184;48.774;8.918;2023-05-07T23:12:27;11.35;;;8.48;;
47433;SDS011;33184;48.774;8.918;2023-05-07T23:17:48;9.07;;;8.18;;
47433;SDS011;33184;48.774;8.918;2023-05-07T23:23:09;10.13;;;8.50;;
47433;SDS011;33184;48.774;8.918;2023-05-07T23:28:30;9.48;;;8.50;;
47433;SDS011;33184;48.774;8.918;2023-05-07T23:33:50;10.88;;;7.65;;
47433;SDS011;33184;48.774;8.918;2023-05-07T23:39:11;10.10;;;8.70;;
47433;SDS011;33184;48.774;8.918;2023-05-07T23:44:31;9.90;;;7.75;;
47433;SDS011;33184;48.774;8.918;2023-05-07T23:49:52;8.38;;;7.50;;
47433;SDS011;33184;48.774;8.918;2023-05-07T23:55:13;10.43;;;8.95;;
